Arthur, North Dakota
Current Conditions -  °F | °C
As of 2:53 AM on Wednesday 28 Jan 2015 (Local Time) from KFAR Reporting Station
Overcast Overcast  
Wind Chill: -4°   Ceiling: 800
Heat Index:   Visibility: 8mi
Dew Point: -1°   Wind: 20mph
Humidity: 85%   Direction: 150°SSE
Pressure: 29.84"   Gusts: 26mph
Location:  47.1°N, 97.22°W
Report Text: KFAR 280853Z 15017G23KT 8SM OVC008 02/M01 A2984 RMK AO2 PK WND 16028/0823 SLP114 T00171006 58023
Loading
Personal Weather Stations






























Interactive Weather Map New forecast layout! Learn more

10-Day Weather Forecast

Advertisements
Track Severe Weather on mobile